Time;durP1;ratioP1;P1;durP2;ratioP2;P2;SDS_P1;SDS_P2;PMS_P1;PMS_P2;Temp;Humidity;BMP_temperature;BMP_pressure;BME280_temperature;BME280_humidity;BME280_pressure;Samples;Min_cycle;Max_cycle;Signal;HPM_P1;HPM_P2
2022/06/07 00:00:02;;;;;;;;;;;;;;;;;;5049077;28;9425;-50
2022/06/07 00:02:33;;;;;;;;;;;;;;;;;;5048718;28;7275;-48
2022/06/07 00:04:58;;;;;;;;;;;;;;;;;;5047615;28;7290;-49
2022/06/07 00:07:24;;;;;;;;;;;;;;;;;;5048135;28;8518;-50
2022/06/07 00:09:50;;;;;;;;;;;;;;;;;;5048576;28;8555;-46
2022/06/07 00:12:17;;;;;;;;;;;;;;;;;;5048072;28;8616;-48
2022/06/07 00:14:43;;;;;;;;;;;;;;;;;;5047974;28;8433;-44
2022/06/07 00:17:09;;;;;;;;;;;;;;;;;;5048596;28;7278;-46
2022/06/07 00:19:35;;;;;;;;;;;;;;;;;;5047564;28;9025;-45
2022/06/07 00:22:00;;;;;;;;;;;;;;;;;;5048158;28;8386;-45
2022/06/07 00:24:26;;;;;;;;;;;;;;;;;;5048218;28;7530;-48
2022/06/07 00:26:52;;;;;;;;;;;;;;;;;;5048049;28;8810;-47
2022/06/07 00:29:18;;;;;;;;;;;;;;;;;;5047846;28;8626;-45
2022/06/07 00:31:44;;;;;;;;;;;;;;;;;;5048258;28;8725;-49
2022/06/07 00:34:09;;;;;;;;;;;;;;;;;;5048064;28;8815;-51
2022/06/07 00:36:36;;;;;;;;;;;;;;;;;;5046916;28;8514;-45
2022/06/07 00:39:01;;;;;;;;;;;;;;;;;;5047375;28;8636;-44
2022/06/07 00:41:26;;;;;;;;;;;;;;;;;;5047568;28;7147;-45
2022/06/07 00:44:21;;;;;;;;;;;;;;;;;;5047838;28;8514;-47
2022/06/07 00:46:51;;;;;;;;;;;;;;;;;;5030589;28;7263;-46
2022/06/07 00:49:17;;;;;;;;;;;;;;;;;;5047609;28;8461;-44
2022/06/07 00:51:44;;;;;;;;;;;;;;;;;;5047188;28;9002;-45
2022/06/07 00:54:10;;;;;;;;;;;;;;;;;;5047242;28;8584;-48
2022/06/07 00:56:36;;;;;;;;;;;;;;;;;;5047075;28;8446;-44
2022/06/07 00:59:03;;;;;;;;;;;;;;;;;;5047185;28;8555;-49
2022/06/07 01:01:32;;;;;;;;;;;;;;;;;;5047713;28;7282;-47
2022/06/07 01:03:57;;;;;;;;;;;;;;;;;;5047078;28;7289;-46
2022/06/07 01:11:51;;;;;;;;;;;;;;;;;;5042453;28;7097;-45
2022/06/07 01:14:16;;;;;;;;;;;;;;;;;;5046869;28;7227;-45
2022/06/07 01:16:42;;;;;;;;;;;;;;;;;;5046760;28;8532;-47
2022/06/07 01:19:07;;;;;;;;;;;;;;;;;;5047234;28;7312;-46
2022/06/07 01:21:33;;;;;;;;;;;;;;;;;;5047355;28;8976;-43
2022/06/07 01:23:59;;;;;;;;;;;;;;;;;;5046782;28;8733;-42
2022/06/07 01:26:25;;;;;;;;;;;;;;;;;;5046783;28;8778;-40
2022/06/07 01:28:51;;;;;;;;;;;;;;;;;;5046898;28;7229;-40
2022/06/07 01:31:16;;;;;;;;;;;;;;;;;;5046765;28;7132;-40
2022/06/07 01:33:42;;;;;;;;;;;;;;;;;;5046948;28;8623;-42
2022/06/07 01:36:11;;;;;;;;;;;;;;;;;;5047260;28;8668;-39
2022/06/07 01:38:37;;;;;;;;;;;;;;;;;;5046566;28;7451;-40
2022/06/07 01:43:47;;;;;;;;;;;;;;;;;;5041807;28;7085;-41
2022/06/07 01:46:12;;;;;;;;;;;;;;;;;;5046871;28;8415;-40
2022/06/07 01:48:38;;;;;;;;;;;;;;;;;;5046559;28;7359;-42
2022/06/07 01:51:04;;;;;;;;;;;;;;;;;;5046199;28;7245;-39
2022/06/07 01:53:29;;;;;;;;;;;;;;;;;;5046786;28;7286;-42
2022/06/07 01:56:03;;;;;;;;;;;;;;;;;;5047028;28;7272;-39
2022/06/07 01:58:29;;;;;;;;;;;;;;;;;;5046540;28;7168;-39
2022/06/07 02:00:54;;;;;;;;;;;;;;;;;;5046678;28;8608;-39
2022/06/07 02:03:20;;;;;;;;;;;;;;;;;;5046862;28;8518;-40
2022/06/07 02:05:59;;;;;;;;;;;;;;;;;;5046262;28;8648;-39
2022/06/07 02:08:24;;;;;;;;;;;;;;;;;;5046703;28;8832;-41
2022/06/07 02:10:50;;;;;;;;;;;;;;;;;;5047392;28;7227;-42
2022/06/07 02:13:15;;;;;;;;;;;;;;;;;;5046378;28;7106;-42
2022/06/07 02:15:41;;;;;;;;;;;;;;;;;;5047489;28;7202;-41
2022/06/07 02:18:06;;;;;;;;;;;;;;;;;;5046318;28;8490;-40
2022/06/07 02:20:32;;;;;;;;;;;;;;;;;;5046408;28;8751;-39
2022/06/07 02:22:57;;;;;;;;;;;;;;;;;;5046305;28;7283;-39
2022/06/07 02:25:22;;;;;;;;;;;;;;;;;;5046617;28;8426;-40
2022/06/07 02:27:48;;;;;;;;;;;;;;;;;;5046059;28;7238;-39
2022/06/07 02:30:14;;;;;;;;;;;;;;;;;;5046151;28;7325;-39
2022/06/07 02:32:39;;;;;;;;;;;;;;;;;;5046658;28;8594;-42
2022/06/07 02:35:05;;;;;;;;;;;;;;;;;;5046616;28;8437;-40
2022/06/07 02:37:30;;;;;;;;;;;;;;;;;;5045907;28;8678;-39
2022/06/07 02:39:55;;;;;;;;;;;;;;;;;;5045965;28;8420;-39
2022/06/07 02:42:22;;;;;;;;;;;;;;;;;;5046225;28;7123;-42
2022/06/07 02:44:48;;;;;;;;;;;;;;;;;;5046142;28;7269;-42
2022/06/07 02:47:14;;;;;;;;;;;;;;;;;;5046274;28;8884;-44
2022/06/07 02:49:39;;;;;;;;;;;;;;;;;;5046266;28;8497;-44
2022/06/07 02:52:05;;;;;;;;;;;;;;;;;;5045815;28;8510;-40
2022/06/07 02:54:30;;;;;;;;;;;;;;;;;;5045663;28;7472;-42
2022/06/07 02:56:56;;;;;;;;;;;;;;;;;;5046195;28;7245;-40
2022/06/07 02:59:21;;;;;;;;;;;;;;;;;;5047868;28;8526;-39
2022/06/07 03:01:47;;;;;;;;;;;;;;;;;;5049641;28;8527;-40
2022/06/07 03:04:12;;;;;;;;;;;;;;;;;;5049610;28;7256;-42
2022/06/07 03:06:38;;;;;;;;;;;;;;;;;;5049529;28;8899;-39
2022/06/07 03:09:03;;;;;;;;;;;;;;;;;;5049876;28;6935;-43
2022/06/07 03:11:29;;;;;;;;;;;;;;;;;;5049599;28;8537;-43
2022/06/07 03:13:54;;;;;;;;;;;;;;;;;;5049072;28;8520;-49
2022/06/07 03:16:20;;;;;;;;;;;;;;;;;;5049325;28;8519;-47
2022/06/07 03:18:45;;;;;;;;;;;;;;;;;;5049440;28;7091;-43
2022/06/07 03:21:11;;;;;;;;;;;;;;;;;;5049394;28;7174;-46
2022/06/07 03:23:36;;;;;;;;;;;;;;;;;;5049578;28;7227;-43
2022/06/07 03:26:09;;;;;;;;;;;;;;;;;;5049341;28;8564;-44
2022/06/07 03:28:35;;;;;;;;;;;;;;;;;;5049412;28;7267;-44
2022/06/07 03:31:05;;;;;;;;;;;;;;;;;;5049088;28;8012;-46
2022/06/07 03:33:34;;;;;;;;;;;;;;;;;;5032536;28;7268;-49
2022/06/07 03:36:03;;;;;;;;;;;;;;;;;;5048216;28;7650;-46
2022/06/07 03:38:29;;;;;;;;;;;;;;;;;;5049051;28;8617;-46
2022/06/07 03:40:55;;;;;;;;;;;;;;;;;;5048749;28;7273;-44
2022/06/07 03:43:20;;;;;;;;;;;;;;;;;;5048557;28;7217;-43
2022/06/07 03:45:46;;;;;;;;;;;;;;;;;;5048736;28;8903;-44
2022/06/07 03:48:11;;;;;;;;;;;;;;;;;;5048579;28;8528;-43
2022/06/07 03:50:36;;;;;;;;;;;;;;;;;;5048265;28;7471;-43
2022/06/07 03:53:02;;;;;;;;;;;;;;;;;;5049543;28;7091;-44
2022/06/07 03:55:28;;;;;;;;;;;;;;;;;;5049024;28;8597;-44
2022/06/07 03:57:54;;;;;;;;;;;;;;;;;;5031977;28;8578;-45
2022/06/07 04:00:19;;;;;;;;;;;;;;;;;;5031810;28;7127;-44
2022/06/07 04:02:45;;;;;;;;;;;;;;;;;;5048148;28;9029;-45
2022/06/07 04:05:10;;;;;;;;;;;;;;;;;;5031688;28;9032;-43
2022/06/07 04:10:20;;;;;;;;;;;;;;;;;;5043589;28;6921;-49
2022/06/07 04:12:45;;;;;;;;;;;;;;;;;;5048774;28;7157;-45
2022/06/07 04:15:11;;;;;;;;;;;;;;;;;;5048129;28;6926;-44
2022/06/07 04:17:36;;;;;;;;;;;;;;;;;;5048488;28;8552;-44
2022/06/07 04:20:02;;;;;;;;;;;;;;;;;;5048262;28;6926;-43
2022/06/07 04:22:28;;;;;;;;;;;;;;;;;;5048718;28;8521;-43
2022/06/07 04:24:53;;;;;;;;;;;;;;;;;;5047887;28;8511;-43
2022/06/07 04:27:19;;;;;;;;;;;;;;;;;;5048240;28;7451;-46
2022/06/07 04:29:44;;;;;;;;;;;;;;;;;;5048115;28;7455;-45
2022/06/07 04:32:11;;;;;;;;;;;;;;;;;;5047814;28;8715;-45
2022/06/07 04:34:37;;;;;;;;;;;;;;;;;;5047906;28;7378;-45
2022/06/07 04:37:02;;;;;;;;;;;;;;;;;;5047761;28;8569;-48
2022/06/07 04:39:28;;;;;;;;;;;;;;;;;;5047756;28;8813;-44
2022/06/07 04:41:53;;;;;;;;;;;;;;;;;;5047696;28;8519;-45
2022/06/07 04:44:19;;;;;;;;;;;;;;;;;;5047533;28;8871;-44
2022/06/07 04:46:45;;;;;;;;;;;;;;;;;;5047374;28;8405;-45
2022/06/07 04:49:10;;;;;;;;;;;;;;;;;;5030671;28;8858;-44
2022/06/07 04:51:36;;;;;;;;;;;;;;;;;;5047313;28;8477;-44
2022/06/07 04:54:02;;;;;;;;;;;;;;;;;;5047580;28;8549;-46
2022/06/07 04:56:31;;;;;;;;;;;;;;;;;;5047506;28;9080;-43
2022/06/07 04:58:57;;;;;;;;;;;;;;;;;;5047759;28;8559;-45
2022/06/07 05:01:27;;;;;;;;;;;;;;;;;;5030768;28;9181;-44
2022/06/07 05:03:53;;;;;;;;;;;;;;;;;;5031113;28;8929;-42
2022/06/07 05:06:19;;;;;;;;;;;;;;;;;;5030996;28;8513;-46
2022/06/07 05:08:45;;;;;;;;;;;;;;;;;;5047403;28;6941;-43
2022/06/07 05:11:11;;;;;;;;;;;;;;;;;;5047164;28;8493;-43
2022/06/07 05:13:36;;;;;;;;;;;;;;;;;;5047417;28;7115;-50
2022/06/07 05:16:02;;;;;;;;;;;;;;;;;;5047049;28;7515;-45
2022/06/07 05:18:28;;;;;;;;;;;;;;;;;;5047191;28;8504;-43
2022/06/07 05:20:53;;;;;;;;;;;;;;;;;;5046601;28;8781;-47
2022/06/07 05:23:19;;;;;;;;;;;;;;;;;;5046491;28;6988;-46
2022/06/07 05:25:59;;;;;;;;;;;;;;;;;;5047024;28;8898;-46
2022/06/07 05:28:25;;;;;;;;;;;;;;;;;;5046809;28;7179;-45
2022/06/07 05:30:50;;;;;;;;;;;;;;;;;;5047376;28;8574;-46
2022/06/07 05:33:16;;;;;;;;;;;;;;;;;;5047082;28;6933;-44
2022/06/07 05:35:42;;;;;;;;;;;;;;;;;;5046913;28;8460;-44
2022/06/07 05:38:08;;;;;;;;;;;;;;;;;;5026616;28;7091;-45
2022/06/07 05:40:34;;;;;;;;;;;;;;;;;;5024806;28;8649;-44
2022/06/07 05:42:59;;;;;;;;;;;;;;;;;;5009040;28;7343;-50
2022/06/07 05:45:24;;;;;;;;;;;;;;;;;;5008892;28;8543;-39
2022/06/07 05:47:50;;;;;;;;;;;;;;;;;;5009831;28;7332;-47
2022/06/07 05:50:15;;;;;;;;;;;;;;;;;;5009106;28;7470;-40
2022/06/07 05:52:41;;;;;;;;;;;;;;;;;;5008792;28;8522;-41
2022/06/07 05:55:07;;;;;;;;;;;;;;;;;;5008948;28;8670;-42
2022/06/07 05:57:34;;;;;;;;;;;;;;;;;;5015847;28;8585;-49
2022/06/07 06:00:00;;;;;;;;;;;;;;;;;;5025505;28;8637;-45
2022/06/07 06:02:25;;;;;;;;;;;;;;;;;;5029966;28;7271;-43
2022/06/07 06:04:51;;;;;;;;;;;;;;;;;;5003576;28;7294;-43
2022/06/07 06:07:16;;;;;;;;;;;;;;;;;;5039083;28;7536;-40
2022/06/07 06:15:01;;;;;;;;;;;;;;;;;;5079548;23;6867;-47
2022/06/07 06:17:26;;;;;;;;;;;;;;;;;;4976564;28;7151;-50
2022/06/07 06:19:52;;;;;;;;;;;;;;;;;;4976219;28;7207;-47
2022/06/07 06:22:17;;;;;;;;;;;;;;;;;;4975792;28;7227;-49
2022/06/07 06:24:43;;;;;;;;;;;;;;;;;;4974404;28;7362;-48
2022/06/07 06:27:08;;;;;;;;;;;;;;;;;;4962741;28;7452;-48
2022/06/07 06:29:34;;;;;;;;;;;;;;;;;;4958175;28;7123;-46
2022/06/07 06:31:59;;;;;;;;;;;;;;;;;;4942358;28;8715;-47
2022/06/07 06:34:29;;;;;;;;;;;;;;;;;;4960072;28;8532;-47
2022/06/07 06:36:56;;;;;;;;;;;;;;;;;;4946906;28;7543;-47
2022/06/07 06:39:22;;;;;;;;;;;;;;;;;;4945841;28;8399;-46
2022/06/07 06:41:48;;;;;;;;;;;;;;;;;;4946341;28;7111;-47
2022/06/07 06:44:13;;;;;;;;;;;;;;;;;;4961521;28;7230;-45
2022/06/07 06:46:40;;;;;;;;;;;;;;;;;;4961553;28;8734;-51
2022/06/07 06:49:06;;;;;;;;;;;;;;;;;;4945564;28;8521;-54
2022/06/07 06:51:31;;;;;;;;;;;;;;;;;;4945581;28;8526;-55
2022/06/07 06:53:57;;;;;;;;;;;;;;;;;;4945936;28;8414;-54
2022/06/07 06:56:23;;;;;;;;;;;;;;;;;;4961217;28;9008;-54
2022/06/07 06:58:49;;;;;;;;;;;;;;;;;;4961425;28;7331;-54
2022/06/07 07:01:15;;;;;;;;;;;;;;;;;;4945165;28;7297;-51
2022/06/07 07:03:41;;;;;;;;;;;;;;;;;;4945257;28;8863;-50
2022/06/07 07:06:07;;;;;;;;;;;;;;;;;;4961585;28;7073;-50
2022/06/07 07:08:34;;;;;;;;;;;;;;;;;;4945008;28;8421;-53
2022/06/07 07:11:15;;;;;;;;;;;;;;;;;;4946239;28;7518;-51
2022/06/07 07:13:40;;;;;;;;;;;;;;;;;;4945234;28;8506;-51
2022/06/07 07:16:07;;;;;;;;;;;;;;;;;;4961029;28;7128;-51
2022/06/07 07:18:33;;;;;;;;;;;;;;;;;;4945829;28;7391;-50
2022/06/07 07:21:01;;;;;;;;;;;;;;;;;;4961113;28;7167;-42
2022/06/07 07:23:27;;;;;;;;;;;;;;;;;;4944557;28;7369;-43
2022/06/07 07:25:52;;;;;;;;;;;;;;;;;;4961072;28;8511;-42
2022/06/07 07:28:17;;;;;;;;;;;;;;;;;;4960604;28;7298;-43
2022/06/07 07:30:43;;;;;;;;;;;;;;;;;;4960696;28;7093;-43
2022/06/07 07:33:08;;;;;;;;;;;;;;;;;;4960837;28;8545;-45
2022/06/07 07:35:34;;;;;;;;;;;;;;;;;;4960662;28;7311;-46
2022/06/07 07:38:00;;;;;;;;;;;;;;;;;;4973144;28;8432;-45
2022/06/07 07:40:26;;;;;;;;;;;;;;;;;;4961644;28;7154;-42
2022/06/07 07:42:52;;;;;;;;;;;;;;;;;;4977610;28;7152;-41
2022/06/07 07:45:18;;;;;;;;;;;;;;;;;;4976585;28;7131;-46
2022/06/07 07:54:44;;;;;;;;;;;;;;;;;;5051803;28;7112;-58
2022/06/07 07:57:13;;;;;;;;;;;;;;;;;;5031588;28;7120;-58
2022/06/07 07:59:41;;;;;;;;;;;;;;;;;;5031010;28;6963;-58
2022/06/07 08:02:06;;;;;;;;;;;;;;;;;;5031685;28;6889;-58
2022/06/07 08:04:32;;;;;;;;;;;;;;;;;;4842535;28;137490;-58
2022/06/07 08:06:58;;;;;;;;;;;;;;;;;;5033420;28;7168;-58
2022/06/07 08:09:26;;;;;;;;;;;;;;;;;;5011832;28;7143;-58
2022/06/07 08:11:52;;;;;;;;;;;;;;;;;;5011982;28;7225;-58
2022/06/07 08:14:18;;;;;;;;;;;;;;;;;;5012338;28;7187;-58
2022/06/07 08:17:02;;;;;;;;;;;;;;;;;;5012247;28;7395;-58
2022/06/07 08:19:28;;;;;;;;;;;;;;;;;;5012116;28;7414;-58
2022/06/07 08:21:53;;;;;;;;;;;;;;;;;;5011236;28;6866;-58
2022/06/07 08:24:40;;;;;;;;;;;;;;;;;;5010836;28;7218;-58
2022/06/07 08:27:06;;;;;;;;;;;;;;;;;;5012730;28;7479;-58
2022/06/07 08:29:38;;;;;;;;;;;;;;;;;;5011624;28;7233;-58
2022/06/07 08:32:04;;;;;;;;;;;;;;;;;;5011795;28;7432;-58
2022/06/07 08:37:34;;;;;;;;;;;;;;;;;;5011681;28;6968;-58
2022/06/07 08:40:20;;;;;;;;;;;;;;;;;;5011859;28;7246;-58
2022/06/07 08:42:50;;;;;;;;;;;;;;;;;;5011753;28;7064;-58
2022/06/07 08:45:33;;;;;;;;;;;;;;;;;;4994785;28;9355;-58
2022/06/07 08:48:03;;;;;;;;;;;;;;;;;;5011476;28;7410;-58
2022/06/07 08:53:25;;;;;;;;;;;;;;;;;;5011227;28;7049;-58
2022/06/07 08:55:53;;;;;;;;;;;;;;;;;;5009575;28;7167;-58
2022/06/07 08:58:22;;;;;;;;;;;;;;;;;;5010582;28;6995;-58
2022/06/07 09:00:49;;;;;;;;;;;;;;;;;;5011667;28;7054;-58
2022/06/07 09:03:33;;;;;;;;;;;;;;;;;;4993842;28;7562;-58
2022/06/07 09:05:59;;;;;;;;;;;;;;;;;;4998923;28;7201;-58
2022/06/07 09:08:25;;;;;;;;;;;;;;;;;;4996778;28;7244;-58
2022/06/07 09:13:36;;;;;;;;;;;;;;;;;;4998680;28;6836;-58
2022/06/07 09:16:01;;;;;;;;;;;;;;;;;;4997149;28;7111;-58
2022/06/07 09:18:28;;;;;;;;;;;;;;;;;;4997500;28;7202;-58
2022/06/07 09:20:56;;;;;;;;;;;;;;;;;;4930982;23;7288;-80
2022/06/07 09:23:43;;;;;;;;;;;;;;;;;;4923132;29;7972;-79
2022/06/07 09:26:15;;;;;;;;;;;;;;;;;;4914179;28;11532;-82
2022/06/07 09:28:41;;;;;;;;;;;;;;;;;;4935264;29;7226;-83
2022/06/07 09:31:10;;;;;;;;;;;;;;;;;;4934947;29;8442;-84
2022/06/07 09:33:42;;;;;;;;;;;;;;;;;;4930068;28;8518;-83
2022/06/07 09:36:27;;;;;;;;;;;;;;;;;;4933301;29;7114;-83
2022/06/07 09:38:56;;;;;;;;;;;;;;;;;;4932323;29;8377;-83
2022/06/07 09:41:36;;;;;;;;;;;;;;;;;;4933379;29;8858;-83
2022/06/07 09:44:14;;;;;;;;;;;;;;;;;;4914784;29;9291;-84
2022/06/07 09:46:42;;;;;;;;;;;;;;;;;;4915015;29;7461;-84
2022/06/07 09:49:23;;;;;;;;;;;;;;;;;;4914826;29;7423;-83
2022/06/07 09:51:48;;;;;;;;;;;;;;;;;;4915341;29;8478;-83
2022/06/07 09:54:19;;;;;;;;;;;;;;;;;;4914623;29;8434;-84
2022/06/07 09:56:51;;;;;;;;;;;;;;;;;;4914135;29;7243;-83
2022/06/07 09:59:25;;;;;;;;;;;;;;;;;;4915098;29;8707;-83
2022/06/07 10:01:59;;;;;;;;;;;;;;;;;;4914995;29;7083;-83
2022/06/07 10:04:25;;;;;;;;;;;;;;;;;;4913717;29;8459;-83
2022/06/07 10:06:54;;;;;;;;;;;;;;;;;;4914198;29;8442;-83
2022/06/07 10:09:20;;;;;;;;;;;;;;;;;;4829444;28;12045;-83
2022/06/07 10:11:57;;;;;;;;;;;;;;;;;;4914408;29;8663;-84
2022/06/07 10:14:23;;;;;;;;;;;;;;;;;;4914489;29;8688;-84
2022/06/07 10:17:12;;;;;;;;;;;;;;;;;;4913477;29;8435;-83
2022/06/07 10:19:53;;;;;;;;;;;;;;;;;;4898631;29;8788;-83
2022/06/07 10:22:24;;;;;;;;;;;;;;;;;;4899028;29;8460;-83
2022/06/07 10:24:56;;;;;;;;;;;;;;;;;;4913891;29;8671;-84
2022/06/07 10:27:45;;;;;;;;;;;;;;;;;;4914614;29;9077;-83
2022/06/07 10:30:17;;;;;;;;;;;;;;;;;;4898191;29;7146;-83
2022/06/07 10:32:50;;;;;;;;;;;;;;;;;;4898838;29;7091;-82
2022/06/07 10:35:39;;;;;;;;;;;;;;;;;;4931966;29;8778;-81
2022/06/07 10:38:40;;;;;;;;;;;;;;;;;;4908045;29;7262;-82
2022/06/07 10:41:29;;;;;;;;;;;;;;;;;;4891912;28;8371;-82
2022/06/07 10:44:01;;;;;;;;;;;;;;;;;;4920482;29;8388;-81
2022/06/07 10:46:28;;;;;;;;;;;;;;;;;;4925105;29;7481;-81
2022/06/07 10:49:12;;;;;;;;;;;;;;;;;;4933732;28;8349;-81
2022/06/07 10:54:29;;;;;;;;;;;;;;;;;;4917985;29;7056;-81
2022/06/07 10:57:14;;;;;;;;;;;;;;;;;;4917621;29;8369;-81
2022/06/07 10:59:43;;;;;;;;;;;;;;;;;;4932984;28;8859;-81
2022/06/07 11:02:18;;;;;;;;;;;;;;;;;;4933009;29;8739;-81
2022/06/07 11:10:35;;;;;;;;;;;;;;;;;;4918919;29;6847;-82
2022/06/07 11:13:19;;;;;;;;;;;;;;;;;;4933539;28;8427;-81
2022/06/07 11:16:03;;;;;;;;;;;;;;;;;;4916964;29;7088;-81
2022/06/07 11:18:30;;;;;;;;;;;;;;;;;;4917174;29;7292;-81
2022/06/07 11:21:01;;;;;;;;;;;;;;;;;;4932916;29;8545;-81
2022/06/07 11:23:31;;;;;;;;;;;;;;;;;;4918211;29;8699;-82
2022/06/07 11:26:00;;;;;;;;;;;;;;;;;;4935561;28;9260;-81
2022/06/07 11:28:28;;;;;;;;;;;;;;;;;;4917625;29;8497;-81
2022/06/07 11:31:00;;;;;;;;;;;;;;;;;;4933913;29;8660;-81
2022/06/07 11:33:30;;;;;;;;;;;;;;;;;;4933666;29;8661;-81
2022/06/07 11:36:25;;;;;;;;;;;;;;;;;;4933493;28;7241;-81
2022/06/07 11:38:54;;;;;;;;;;;;;;;;;;4933680;28;7302;-81
2022/06/07 11:41:38;;;;;;;;;;;;;;;;;;4917308;29;7236;-81
2022/06/07 11:44:23;;;;;;;;;;;;;;;;;;4917613;29;7088;-81
2022/06/07 11:46:51;;;;;;;;;;;;;;;;;;4933412;28;8551;-80
2022/06/07 11:49:17;;;;;;;;;;;;;;;;;;4917652;29;9026;-81
2022/06/07 11:51:51;;;;;;;;;;;;;;;;;;4917312;29;8389;-81
2022/06/07 11:54:22;;;;;;;;;;;;;;;;;;4933362;28;8490;-81
2022/06/07 11:56:48;;;;;;;;;;;;;;;;;;4933144;29;8832;-81
2022/06/07 11:59:16;;;;;;;;;;;;;;;;;;4933223;28;8796;-81
2022/06/07 12:01:47;;;;;;;;;;;;;;;;;;4917386;29;8476;-81
2022/06/07 12:04:31;;;;;;;;;;;;;;;;;;4933029;29;8459;-80
2022/06/07 12:07:06;;;;;;;;;;;;;;;;;;4917453;29;8364;-80
2022/06/07 12:09:34;;;;;;;;;;;;;;;;;;4932816;28;7243;-81
2022/06/07 12:12:17;;;;;;;;;;;;;;;;;;4933332;28;8754;-80
2022/06/07 12:14:43;;;;;;;;;;;;;;;;;;4933341;28;8472;-80
2022/06/07 12:17:21;;;;;;;;;;;;;;;;;;4933400;29;8388;-81
2022/06/07 12:19:47;;;;;;;;;;;;;;;;;;4932632;29;8373;-81
2022/06/07 12:22:17;;;;;;;;;;;;;;;;;;4933126;29;7234;-81
2022/06/07 12:24:57;;;;;;;;;;;;;;;;;;4932661;28;8561;-81
2022/06/07 12:27:25;;;;;;;;;;;;;;;;;;4933305;28;7244;-80
2022/06/07 12:29:54;;;;;;;;;;;;;;;;;;4932867;28;8787;-81
2022/06/07 12:32:26;;;;;;;;;;;;;;;;;;4933244;28;7256;-81
2022/06/07 12:35:10;;;;;;;;;;;;;;;;;;4932810;28;8501;-81
2022/06/07 12:37:38;;;;;;;;;;;;;;;;;;4916970;29;8422;-81
2022/06/07 12:40:20;;;;;;;;;;;;;;;;;;4934199;28;8856;-81
2022/06/07 12:42:47;;;;;;;;;;;;;;;;;;4936499;29;8553;-81
2022/06/07 12:45:18;;;;;;;;;;;;;;;;;;4936269;28;7335;-80
2022/06/07 12:47:46;;;;;;;;;;;;;;;;;;4935601;29;8490;-81
2022/06/07 12:50:24;;;;;;;;;;;;;;;;;;4935595;28;7469;-80
2022/06/07 12:52:51;;;;;;;;;;;;;;;;;;4935397;28;7146;-81
2022/06/07 12:55:21;;;;;;;;;;;;;;;;;;4935196;28;7104;-80
2022/06/07 12:57:53;;;;;;;;;;;;;;;;;;4935078;28;7184;-80
2022/06/07 13:00:22;;;;;;;;;;;;;;;;;;4935148;29;9083;-81
2022/06/07 13:02:52;;;;;;;;;;;;;;;;;;4935947;28;7141;-81
2022/06/07 13:05:21;;;;;;;;;;;;;;;;;;4935895;28;8345;-81
2022/06/07 13:07:49;;;;;;;;;;;;;;;;;;4935528;28;7259;-80
2022/06/07 13:10:19;;;;;;;;;;;;;;;;;;4935819;28;7147;-80
2022/06/07 13:12:48;;;;;;;;;;;;;;;;;;4936265;28;8571;-80
2022/06/07 13:15:13;;;;;;;;;;;;;;;;;;4931239;28;8438;-80
2022/06/07 13:17:51;;;;;;;;;;;;;;;;;;4933639;29;9465;-81
2022/06/07 13:20:43;;;;;;;;;;;;;;;;;;4932770;29;9363;-80
2022/06/07 13:23:11;;;;;;;;;;;;;;;;;;4933291;28;8365;-80
2022/06/07 13:25:37;;;;;;;;;;;;;;;;;;4933298;29;8479;-81
2022/06/07 13:28:05;;;;;;;;;;;;;;;;;;4933341;29;9628;-81
2022/06/07 13:30:38;;;;;;;;;;;;;;;;;;4933063;29;7440;-81
2022/06/07 13:33:10;;;;;;;;;;;;;;;;;;4932857;29;7238;-81
2022/06/07 13:35:49;;;;;;;;;;;;;;;;;;4851104;28;12192;-81
2022/06/07 13:38:18;;;;;;;;;;;;;;;;;;4917167;29;8511;-81
2022/06/07 13:40:44;;;;;;;;;;;;;;;;;;4934527;29;8465;-81
2022/06/07 13:43:17;;;;;;;;;;;;;;;;;;4933667;29;9313;-81
2022/06/07 13:45:49;;;;;;;;;;;;;;;;;;4885507;28;8584;-81
2022/06/07 13:53:21;;;;;;;;;;;;;;;;;;4928960;29;7263;-82
2022/06/07 13:54:13;;;;;;;;;;;;;;;;;;4919840;29;7055;-82
2022/06/07 13:56:38;;;;;;;;;;;;;;;;;;4934431;29;9594;-81
2022/06/07 13:59:04;;;;;;;;;;;;;;;;;;4933833;29;7218;-82
2022/06/07 14:01:34;;;;;;;;;;;;;;;;;;4933981;29;7225;-82
2022/06/07 14:04:05;;;;;;;;;;;;;;;;;;4933101;29;8477;-82
2022/06/07 14:06:33;;;;;;;;;;;;;;;;;;4933535;29;7068;-81
2022/06/07 14:08:59;;;;;;;;;;;;;;;;;;4934115;29;8678;-81
2022/06/07 14:11:26;;;;;;;;;;;;;;;;;;4933394;29;8881;-82
2022/06/07 14:13:51;;;;;;;;;;;;;;;;;;4932379;29;8492;-81
2022/06/07 14:16:28;;;;;;;;;;;;;;;;;;4933484;29;8489;-82
2022/06/07 14:18:54;;;;;;;;;;;;;;;;;;4933318;29;7440;-81
2022/06/07 14:21:19;;;;;;;;;;;;;;;;;;4933166;29;8554;-81
2022/06/07 14:23:45;;;;;;;;;;;;;;;;;;4934354;29;8502;-82
2022/06/07 14:26:13;;;;;;;;;;;;;;;;;;4934020;29;7507;-82
2022/06/07 14:28:38;;;;;;;;;;;;;;;;;;4933109;29;8679;-82
2022/06/07 14:31:06;;;;;;;;;;;;;;;;;;4934321;29;8438;-82
2022/06/07 14:33:33;;;;;;;;;;;;;;;;;;4934179;29;8657;-82
2022/06/07 14:35:59;;;;;;;;;;;;;;;;;;4933840;29;8762;-82
2022/06/07 14:38:24;;;;;;;;;;;;;;;;;;4934139;29;8504;-82
2022/06/07 14:40:50;;;;;;;;;;;;;;;;;;4933582;29;7312;-82
2022/06/07 14:43:19;;;;;;;;;;;;;;;;;;4933877;29;9044;-82
2022/06/07 14:45:48;;;;;;;;;;;;;;;;;;4934280;29;8835;-83
2022/06/07 14:48:21;;;;;;;;;;;;;;;;;;4933260;29;8960;-82
2022/06/07 14:50:47;;;;;;;;;;;;;;;;;;4933790;29;7097;-82
2022/06/07 14:53:13;;;;;;;;;;;;;;;;;;4933732;29;7100;-82
2022/06/07 14:55:38;;;;;;;;;;;;;;;;;;4933252;29;8531;-82
2022/06/07 14:58:04;;;;;;;;;;;;;;;;;;4933661;29;8481;-82
2022/06/07 15:00:30;;;;;;;;;;;;;;;;;;4933913;29;8641;-82
2022/06/07 15:02:59;;;;;;;;;;;;;;;;;;4932073;29;8548;-81
2022/06/07 15:05:28;;;;;;;;;;;;;;;;;;4932824;29;7142;-80
2022/06/07 15:07:56;;;;;;;;;;;;;;;;;;4933804;29;7256;-81
2022/06/07 15:10:24;;;;;;;;;;;;;;;;;;4932798;29;8971;-81
2022/06/07 15:12:50;;;;;;;;;;;;;;;;;;4933470;29;7423;-82
2022/06/07 15:15:17;;;;;;;;;;;;;;;;;;4933275;29;8851;-82
2022/06/07 15:17:45;;;;;;;;;;;;;;;;;;4932761;29;8956;-82
2022/06/07 15:20:23;;;;;;;;;;;;;;;;;;4932930;29;7272;-81
2022/06/07 15:22:49;;;;;;;;;;;;;;;;;;4933305;29;8496;-81
2022/06/07 15:25:16;;;;;;;;;;;;;;;;;;4933008;29;8487;-81
2022/06/07 15:27:42;;;;;;;;;;;;;;;;;;4933101;29;8617;-81
2022/06/07 15:30:08;;;;;;;;;;;;;;;;;;4933310;29;8537;-82
2022/06/07 15:32:35;;;;;;;;;;;;;;;;;;4932633;29;8522;-81
2022/06/07 15:35:03;;;;;;;;;;;;;;;;;;4933294;29;8978;-81
2022/06/07 15:37:31;;;;;;;;;;;;;;;;;;4933064;29;8779;-82
2022/06/07 15:39:57;;;;;;;;;;;;;;;;;;4932903;29;7087;-82
2022/06/07 15:45:09;;;;;;;;;;;;;;;;;;4918722;29;7049;-81
2022/06/07 15:47:36;;;;;;;;;;;;;;;;;;4932525;29;7535;-81
2022/06/07 15:50:04;;;;;;;;;;;;;;;;;;4932996;29;7271;-81
2022/06/07 15:52:30;;;;;;;;;;;;;;;;;;4932667;29;8412;-82
2022/06/07 15:54:55;;;;;;;;;;;;;;;;;;4932274;29;8878;-82
2022/06/07 15:59:02;;;;;;;;;;;;;;;;;;4932631;29;8498;-81
2022/06/07 16:00:06;;;;;;;;;;;;;;;;;;4918261;29;7116;-81
2022/06/07 16:02:32;;;;;;;;;;;;;;;;;;4932867;29;8781;-81
2022/06/07 16:04:58;;;;;;;;;;;;;;;;;;4933036;29;7132;-81
2022/06/07 16:07:24;;;;;;;;;;;;;;;;;;4933000;29;8483;-81
2022/06/07 16:09:49;;;;;;;;;;;;;;;;;;4932406;29;8982;-82
2022/06/07 16:12:15;;;;;;;;;;;;;;;;;;4933145;29;7174;-81
2022/06/07 16:14:41;;;;;;;;;;;;;;;;;;4933758;29;8810;-82
2022/06/07 16:17:06;;;;;;;;;;;;;;;;;;4936156;29;9174;-77
2022/06/07 16:19:35;;;;;;;;;;;;;;;;;;4936192;29;7234;-82
2022/06/07 16:22:01;;;;;;;;;;;;;;;;;;4936211;29;8414;-82
2022/06/07 16:24:26;;;;;;;;;;;;;;;;;;4935763;29;8504;-82
2022/06/07 16:26:52;;;;;;;;;;;;;;;;;;4936631;29;8442;-83
2022/06/07 16:34:45;;;;;;;;;;;;;;;;;;4921622;29;7082;-82
2022/06/07 16:37:11;;;;;;;;;;;;;;;;;;4935901;29;8790;-82
2022/06/07 16:39:36;;;;;;;;;;;;;;;;;;4935848;29;7233;-82
2022/06/07 16:42:02;;;;;;;;;;;;;;;;;;4935915;29;8483;-82
2022/06/07 16:44:29;;;;;;;;;;;;;;;;;;4935754;29;8358;-82
2022/06/07 16:46:55;;;;;;;;;;;;;;;;;;4935410;29;7210;-82
2022/06/07 16:49:24;;;;;;;;;;;;;;;;;;4935969;29;8916;-82
2022/06/07 16:51:51;;;;;;;;;;;;;;;;;;4936129;29;8648;-82
2022/06/07 16:54:17;;;;;;;;;;;;;;;;;;4935535;29;8486;-82
2022/06/07 16:56:43;;;;;;;;;;;;;;;;;;4938525;29;8682;-82
2022/06/07 16:59:10;;;;;;;;;;;;;;;;;;4937497;29;8451;-82
2022/06/07 17:01:37;;;;;;;;;;;;;;;;;;4936518;29;7128;-82
2022/06/07 17:04:04;;;;;;;;;;;;;;;;;;4936029;29;8872;-82
2022/06/07 17:06:29;;;;;;;;;;;;;;;;;;4935451;29;7680;-83
2022/06/07 17:08:56;;;;;;;;;;;;;;;;;;4935758;29;8478;-83
2022/06/07 17:11:23;;;;;;;;;;;;;;;;;;4935534;29;8521;-82
2022/06/07 17:13:49;;;;;;;;;;;;;;;;;;4935910;29;8857;-83
2022/06/07 17:16:16;;;;;;;;;;;;;;;;;;4935272;29;8483;-82
2022/06/07 17:18:42;;;;;;;;;;;;;;;;;;4935376;29;8513;-83
2022/06/07 17:21:08;;;;;;;;;;;;;;;;;;4935548;29;8478;-79
2022/06/07 17:23:38;;;;;;;;;;;;;;;;;;4934968;29;8499;-79
2022/06/07 17:26:05;;;;;;;;;;;;;;;;;;4934903;29;8484;-78
2022/06/07 17:28:30;;;;;;;;;;;;;;;;;;4935140;29;8458;-82
2022/06/07 17:30:56;;;;;;;;;;;;;;;;;;4934747;29;7518;-82
2022/06/07 17:33:21;;;;;;;;;;;;;;;;;;4935497;29;8408;-82
2022/06/07 17:35:47;;;;;;;;;;;;;;;;;;4875501;28;12051;-83
2022/06/07 17:38:13;;;;;;;;;;;;;;;;;;4918793;29;8760;-82
2022/06/07 17:40:40;;;;;;;;;;;;;;;;;;4935018;29;7531;-82
2022/06/07 17:43:07;;;;;;;;;;;;;;;;;;4934990;29;8494;-83
2022/06/07 17:45:33;;;;;;;;;;;;;;;;;;4934569;29;8450;-82
2022/06/07 17:47:59;;;;;;;;;;;;;;;;;;4934795;29;7264;-82
2022/06/07 17:50:26;;;;;;;;;;;;;;;;;;4934971;29;9348;-82
2022/06/07 17:52:52;;;;;;;;;;;;;;;;;;4934610;29;8594;-82
2022/06/07 17:55:18;;;;;;;;;;;;;;;;;;4935273;29;8484;-83
2022/06/07 17:57:45;;;;;;;;;;;;;;;;;;4934986;29;7148;-82
2022/06/07 18:00:12;;;;;;;;;;;;;;;;;;4934281;29;8502;-82
2022/06/07 18:02:38;;;;;;;;;;;;;;;;;;4935011;29;8521;-83